createdAt,value
2017-12-22T00:00:55.921Z,11.07
2017-12-22T00:03:23.400Z,10.33
2017-12-22T00:05:51.644Z,11.87
2017-12-22T00:08:19.121Z,11.93
2017-12-22T00:10:48.259Z,12.40
2017-12-22T00:13:15.763Z,12.53
2017-12-22T00:15:46.907Z,11.67
2017-12-22T00:18:14.404Z,12.60
2017-12-22T00:20:41.846Z,12.90
2017-12-22T00:23:09.285Z,12.33
2017-12-22T00:25:37.502Z,12.30
2017-12-22T00:28:04.958Z,13.43
2017-12-22T00:30:32.406Z,13.00
2017-12-22T00:32:59.870Z,13.23
2017-12-22T00:35:27.319Z,13.70
2017-12-22T00:37:54.778Z,12.70
2017-12-22T00:40:22.238Z,14.27
2017-12-22T00:42:49.687Z,13.93
2017-12-22T00:45:17.151Z,14.27
2017-12-22T00:47:44.607Z,14.60
2017-12-22T00:50:12.058Z,15.13
2017-12-22T00:52:39.505Z,13.53
2017-12-22T00:55:06.975Z,14.93
2017-12-22T00:57:35.089Z,15.73
2017-12-22T01:00:02.558Z,18.50
2017-12-22T01:02:30.003Z,18.20
2017-12-22T01:04:57.442Z,17.00
2017-12-22T01:07:24.897Z,17.40
2017-12-22T01:09:52.359Z,18.40
2017-12-22T01:12:19.819Z,15.40
2017-12-22T01:14:47.273Z,15.30
2017-12-22T01:17:20.423Z,14.63
2017-12-22T01:19:47.879Z,15.07
2017-12-22T01:22:15.314Z,13.80
2017-12-22T01:24:42.754Z,14.87
2017-12-22T01:27:10.975Z,13.97
2017-12-22T01:29:38.417Z,14.00
2017-12-22T01:32:05.858Z,13.70
2017-12-22T01:34:33.310Z,13.93
2017-12-22T01:37:00.751Z,12.40
2017-12-22T01:39:28.959Z,12.47
2017-12-22T01:41:56.418Z,13.63
2017-12-22T01:44:23.858Z,14.30
2017-12-22T01:46:51.302Z,14.40
2017-12-22T01:49:18.746Z,13.80
2017-12-22T01:51:46.194Z,14.20
2017-12-22T01:54:14.415Z,15.97
2017-12-22T01:56:41.872Z,14.50
2017-12-22T01:59:09.310Z,14.57
2017-12-22T02:01:36.762Z,14.47
2017-12-22T02:04:04.202Z,14.43
2017-12-22T02:06:32.410Z,14.60
2017-12-22T02:08:59.866Z,14.30
2017-12-22T02:11:27.315Z,13.30
2017-12-22T02:13:54.751Z,14.30
2017-12-22T02:16:22.962Z,13.73
2017-12-22T02:18:50.406Z,13.97
2017-12-22T02:21:17.860Z,15.33
2017-12-22T02:23:45.320Z,15.30
2017-12-22T02:26:12.767Z,16.10
2017-12-22T02:28:40.230Z,16.10
2017-12-22T02:31:07.658Z,16.40
2017-12-22T02:33:35.875Z,16.00
2017-12-22T02:36:03.319Z,15.57
2017-12-22T02:38:30.774Z,14.53
2017-12-22T02:40:58.228Z,15.10
2017-12-22T02:43:25.690Z,15.00
2017-12-22T02:45:53.126Z,14.80
2017-12-22T02:48:20.600Z,15.27
2017-12-22T02:50:48.808Z,14.10
2017-12-22T02:53:16.246Z,14.50
2017-12-22T02:55:43.694Z,13.77
2017-12-22T02:58:11.146Z,15.57
2017-12-22T03:00:38.594Z,15.60
2017-12-22T03:03:06.052Z,14.50
2017-12-22T03:05:33.498Z,15.63
2017-12-22T03:08:00.943Z,16.43
2017-12-22T03:10:28.387Z,13.90
2017-12-22T03:12:55.844Z,14.93
2017-12-22T03:15:24.062Z,15.40
2017-12-22T03:17:51.508Z,15.37
2017-12-22T03:20:18.958Z,16.10
2017-12-22T03:22:46.412Z,16.33
2017-12-22T03:25:13.868Z,16.03
2017-12-22T03:27:41.307Z,17.70
2017-12-22T03:30:08.758Z,19.23
2017-12-22T03:32:36.199Z,17.30
2017-12-22T03:35:04.411Z,16.90
2017-12-22T03:37:31.893Z,16.20
2017-12-22T03:39:59.347Z,16.93
2017-12-22T03:42:26.790Z,16.80
2017-12-22T03:44:54.238Z,15.83
2017-12-22T03:47:21.687Z,14.23
2017-12-22T03:49:49.141Z,14.67
2017-12-22T03:52:16.583Z,14.53
2017-12-22T03:54:44.030Z,15.07
2017-12-22T03:57:12.234Z,15.87
2017-12-22T03:59:39.695Z,14.07
2017-12-22T04:02:07.151Z,13.33
2017-12-22T04:04:34.602Z,14.37
2017-12-22T04:07:02.059Z,13.53
2017-12-22T04:09:29.562Z,12.57
2017-12-22T04:11:57.502Z,13.80
2017-12-22T04:14:25.871Z,12.73
2017-12-22T04:16:53.317Z,12.57
2017-12-22T04:19:20.770Z,13.53
2017-12-22T04:21:48.212Z,11.70
2017-12-22T04:24:15.683Z,13.20
2017-12-22T04:26:43.143Z,14.00
2017-12-22T04:29:10.595Z,12.70
2017-12-22T04:31:38.050Z,11.93
2017-12-22T04:34:05.491Z,12.67
2017-12-22T04:36:32.941Z,12.97
2017-12-22T04:39:00.379Z,11.73
2017-12-22T04:41:28.609Z,13.50
2017-12-22T04:43:56.035Z,13.10
2017-12-22T04:46:23.479Z,13.37
2017-12-22T04:48:50.923Z,12.83
2017-12-22T04:51:19.134Z,14.40
2017-12-22T04:53:46.587Z,13.07
2017-12-22T04:56:14.046Z,13.30
2017-12-22T04:58:41.488Z,13.53
2017-12-22T05:01:10.215Z,13.83
2017-12-22T05:03:37.656Z,13.60
2017-12-22T05:06:05.146Z,15.00
2017-12-22T05:08:32.555Z,14.93
2017-12-22T05:11:00.807Z,13.87
2017-12-22T05:13:28.242Z,14.50
2017-12-22T05:15:56.462Z,14.70
2017-12-22T05:18:23.899Z,15.27
2017-12-22T05:20:51.343Z,14.33
2017-12-22T05:23:18.789Z,14.00
2017-12-22T05:25:48.206Z,14.30
2017-12-22T05:28:15.703Z,13.83
2017-12-22T05:30:43.867Z,14.00
2017-12-22T05:33:11.310Z,14.60
2017-12-22T05:35:38.770Z,14.43
2017-12-22T05:38:06.227Z,15.50
2017-12-22T05:40:33.683Z,15.10
2017-12-22T05:43:01.135Z,14.07
2017-12-22T05:45:29.274Z,15.53
2017-12-22T05:47:57.487Z,13.53
2017-12-22T05:50:24.939Z,13.63
2017-12-22T05:52:52.400Z,14.10
2017-12-22T05:55:19.830Z,14.10
2017-12-22T05:57:47.292Z,13.80
2017-12-22T06:00:14.738Z,13.07
2017-12-22T06:02:42.195Z,13.27
2017-12-22T06:05:09.635Z,13.77
2017-12-22T06:07:37.851Z,12.50
2017-12-22T06:10:05.301Z,12.50
2017-12-22T06:12:32.767Z,11.70
2017-12-22T06:15:00.214Z,11.53
2017-12-22T06:17:27.675Z,12.03
2017-12-22T06:19:55.115Z,11.73
2017-12-22T06:22:22.570Z,11.40
2017-12-22T06:24:51.207Z,12.60
2017-12-22T06:27:18.659Z,11.87
2017-12-22T06:29:46.114Z,12.00
2017-12-22T06:32:13.565Z,11.70
2017-12-22T06:34:41.034Z,10.80
2017-12-22T06:37:08.470Z,10.50
2017-12-22T06:39:35.915Z,10.37
2017-12-22T06:42:03.358Z,9.63
2017-12-22T06:44:30.823Z,10.67
2017-12-22T06:46:58.297Z,10.20
2017-12-22T06:49:25.743Z,10.67
2017-12-22T06:51:53.803Z,9.90
2017-12-22T06:54:21.258Z,10.20
2017-12-22T06:56:48.716Z,10.90
2017-12-22T06:59:16.174Z,9.20
2017-12-22T07:01:43.624Z,10.57
2017-12-22T07:04:11.088Z,10.27
2017-12-22T07:06:38.534Z,10.47
2017-12-22T07:09:05.987Z,10.00
2017-12-22T07:11:33.426Z,9.90
2017-12-22T07:14:00.871Z,10.20
2017-12-22T07:16:29.074Z,9.70
2017-12-22T07:18:56.531Z,7.70
2017-12-22T07:21:23.974Z,10.40
2017-12-22T07:23:51.423Z,9.90
2017-12-22T07:26:18.862Z,9.87
2017-12-22T07:28:47.075Z,9.30
2017-12-22T07:31:14.520Z,10.20
2017-12-22T07:33:41.970Z,9.57
2017-12-22T07:36:09.410Z,9.57
2017-12-22T07:38:37.627Z,11.70
2017-12-22T07:41:05.066Z,10.80
2017-12-22T07:43:32.526Z,11.00
2017-12-22T07:45:59.979Z,10.60
2017-12-22T07:48:27.442Z,11.20
2017-12-22T07:50:54.874Z,9.63
2017-12-22T07:53:22.328Z,10.90
2017-12-22T07:55:49.769Z,8.67
2017-12-22T07:58:17.979Z,8.87
2017-12-22T08:00:45.417Z,9.27
2017-12-22T08:03:12.857Z,10.93
2017-12-22T08:05:41.061Z,9.63
2017-12-22T08:08:08.517Z,10.73
2017-12-22T08:10:37.169Z,10.57
2017-12-22T08:13:05.388Z,8.80
2017-12-22T08:15:32.835Z,12.83
2017-12-22T08:18:00.281Z,12.00
2017-12-22T08:20:27.731Z,10.37
2017-12-22T08:22:55.171Z,6.20
2017-12-22T08:25:23.381Z,7.20
2017-12-22T08:27:50.811Z,6.37
2017-12-22T08:30:18.250Z,5.40
2017-12-22T08:32:46.459Z,6.17
2017-12-22T08:35:14.037Z,5.87
2017-12-22T08:37:41.465Z,6.47
2017-12-22T08:40:08.910Z,5.70
2017-12-22T08:42:36.343Z,6.20
2017-12-22T08:45:04.606Z,6.27
2017-12-22T08:47:32.041Z,6.20
2017-12-22T08:49:59.483Z,5.80
2017-12-22T08:52:26.943Z,5.40
2017-12-22T08:54:54.382Z,6.60
2017-12-22T08:57:21.815Z,5.50
2017-12-22T08:59:49.255Z,5.53
2017-12-22T09:02:17.465Z,5.70
2017-12-22T09:04:44.904Z,6.27
2017-12-22T09:07:12.339Z,5.20
2017-12-22T09:09:40.555Z,5.77
2017-12-22T09:12:07.995Z,6.20
2017-12-22T09:14:35.451Z,4.83
2017-12-22T09:17:02.883Z,5.80
2017-12-22T09:19:31.103Z,4.90
2017-12-22T09:21:58.546Z,5.90
2017-12-22T09:24:25.999Z,5.13
2017-12-22T09:26:53.426Z,5.20
2017-12-22T09:29:22.555Z,5.43
2017-12-22T09:31:50.012Z,5.10
2017-12-22T09:34:17.467Z,5.53
2017-12-22T09:36:44.964Z,5.53
2017-12-22T09:39:12.351Z,6.27
2017-12-22T09:41:40.562Z,6.13
2017-12-22T09:44:08.009Z,5.23
2017-12-22T09:46:35.455Z,5.83
2017-12-22T09:49:02.892Z,5.97
2017-12-22T09:51:30.341Z,5.57
2017-12-22T09:53:58.542Z,5.50
2017-12-22T09:56:25.984Z,6.10
2017-12-22T09:58:53.486Z,6.00
2017-12-22T10:01:21.632Z,6.17
2017-12-22T10:03:49.067Z,6.10
2017-12-22T10:06:16.511Z,5.80
2017-12-22T10:08:43.951Z,5.30
2017-12-22T10:11:11.390Z,7.13
2017-12-22T10:13:38.839Z,7.83
2017-12-22T10:16:06.279Z,7.30
2017-12-22T10:18:33.723Z,6.10
2017-12-22T10:21:01.162Z,6.60
2017-12-22T10:23:28.598Z,7.37
2017-12-22T10:25:56.810Z,10.57
2017-12-22T10:28:24.251Z,10.60
2017-12-22T10:30:51.694Z,9.90
2017-12-22T10:33:19.134Z,10.47
2017-12-22T10:35:47.354Z,11.77
2017-12-22T10:38:14.807Z,10.23
2017-12-22T10:40:42.260Z,10.63
2017-12-22T10:43:09.722Z,10.07
2017-12-22T10:45:37.154Z,8.17
2017-12-22T10:48:04.594Z,7.67
2017-12-22T10:50:32.802Z,7.33
2017-12-22T10:53:00.247Z,7.70
2017-12-22T10:55:27.691Z,7.23
2017-12-22T10:57:55.134Z,7.80
2017-12-22T11:00:23.346Z,6.43
2017-12-22T11:02:50.805Z,7.43
2017-12-22T11:05:18.255Z,7.43
2017-12-22T11:07:45.688Z,7.10
2017-12-22T11:10:13.329Z,6.73
2017-12-22T11:12:40.775Z,7.47
2017-12-22T11:15:08.215Z,7.33
2017-12-22T11:17:35.660Z,7.10
2017-12-22T11:20:03.094Z,6.13
2017-12-22T11:22:30.551Z,7.27
2017-12-22T11:24:57.982Z,7.47
2017-12-22T11:27:25.435Z,6.47
2017-12-22T11:29:53.636Z,6.53
2017-12-22T11:32:21.074Z,7.03
2017-12-22T11:34:48.512Z,8.67
2017-12-22T11:37:16.730Z,8.63
2017-12-22T11:39:44.175Z,7.50
2017-12-22T11:42:11.634Z,7.90
2017-12-22T11:44:39.075Z,7.13
2017-12-22T11:47:06.524Z,6.00
2017-12-22T11:49:33.963Z,5.33
2017-12-22T11:52:02.177Z,5.53
2017-12-22T11:54:29.628Z,5.60
2017-12-22T11:56:57.062Z,5.60
2017-12-22T11:59:24.502Z,4.90
2017-12-22T12:01:52.719Z,5.70
2017-12-22T12:04:20.171Z,6.70
2017-12-22T12:06:47.646Z,5.83
2017-12-22T12:09:15.152Z,9.10
2017-12-22T12:11:42.551Z,8.10
2017-12-22T12:14:09.994Z,6.10
2017-12-22T12:16:37.661Z,7.00
2017-12-22T12:19:05.112Z,7.20
2017-12-22T12:21:32.550Z,7.27
2017-12-22T12:23:59.996Z,7.90
2017-12-22T12:26:27.444Z,8.50
2017-12-22T12:28:54.887Z,8.83
2017-12-22T12:31:23.111Z,7.03
2017-12-22T12:33:50.546Z,7.80
2017-12-22T12:36:17.978Z,8.20
2017-12-22T12:38:46.195Z,7.27
2017-12-22T12:41:13.635Z,8.60
2017-12-22T12:43:41.079Z,8.60
2017-12-22T12:46:09.284Z,8.37
2017-12-22T12:48:36.733Z,7.77
2017-12-22T12:51:04.218Z,7.77
2017-12-22T12:53:31.694Z,7.87
2017-12-22T12:55:59.126Z,8.13
2017-12-22T12:58:26.583Z,8.00
2017-12-22T13:00:54.814Z,7.63
2017-12-22T13:03:22.255Z,7.87
2017-12-22T13:05:50.468Z,8.87
2017-12-22T13:08:18.082Z,8.90
2017-12-22T13:10:46.314Z,8.70
2017-12-22T13:13:14.531Z,9.07
2017-12-22T13:15:42.742Z,8.60
2017-12-22T13:18:10.194Z,9.10
2017-12-22T13:20:37.644Z,11.07
2017-12-22T13:23:05.095Z,10.53
2017-12-22T13:25:32.534Z,8.67
2017-12-22T13:28:00.746Z,10.40
2017-12-22T13:30:28.199Z,11.70
2017-12-22T13:32:55.651Z,11.90
2017-12-22T13:35:23.107Z,10.90
2017-12-22T13:37:50.543Z,9.23
2017-12-22T13:40:17.982Z,8.50
2017-12-22T13:42:46.195Z,8.80
2017-12-22T13:45:13.651Z,9.47
2017-12-22T13:47:41.087Z,8.60
2017-12-22T13:50:08.527Z,8.67
2017-12-22T13:52:36.734Z,8.77
2017-12-22T13:55:04.190Z,9.20
2017-12-22T13:57:31.635Z,9.40
2017-12-22T13:59:59.075Z,7.67
2017-12-22T14:02:27.283Z,8.67
2017-12-22T14:04:54.735Z,9.80
2017-12-22T14:07:22.190Z,8.43
2017-12-22T14:09:49.647Z,9.00
2017-12-22T14:12:17.082Z,7.63
2017-12-22T14:14:44.528Z,7.73
2017-12-22T14:17:11.967Z,6.47
2017-12-22T14:19:39.419Z,6.13
2017-12-22T14:22:06.854Z,6.17
2017-12-22T14:24:34.699Z,6.37
2017-12-22T14:27:02.143Z,6.47
2017-12-22T14:29:34.290Z,6.30
2017-12-22T14:32:03.507Z,5.87
2017-12-22T14:34:31.722Z,5.63
2017-12-22T14:36:59.171Z,5.53
2017-12-22T14:39:26.612Z,6.57
2017-12-22T14:41:54.063Z,8.00
2017-12-22T14:44:21.506Z,8.30
2017-12-22T14:46:48.974Z,8.73
2017-12-22T14:49:16.415Z,7.50
2017-12-22T14:51:43.872Z,8.37
2017-12-22T14:54:11.306Z,7.37
2017-12-22T14:56:38.746Z,8.60
2017-12-22T14:59:06.961Z,9.87
2017-12-22T15:01:34.418Z,14.50
2017-12-22T15:04:01.871Z,41.30
2017-12-22T15:06:29.336Z,53.40
2017-12-22T15:08:56.786Z,33.67
2017-12-22T15:11:25.018Z,25.60
2017-12-22T15:13:53.231Z,39.43
2017-12-22T15:16:20.748Z,29.33
2017-12-22T15:18:48.152Z,20.70
2017-12-22T15:21:15.604Z,19.80
2017-12-22T15:23:43.053Z,25.83
2017-12-22T15:26:10.547Z,28.37
2017-12-22T15:28:37.998Z,24.43
2017-12-22T15:31:05.497Z,12.47
2017-12-22T15:33:33.703Z,10.30
2017-12-22T15:36:01.145Z,9.53
2017-12-22T15:38:28.621Z,8.57
2017-12-22T15:40:56.064Z,7.50
2017-12-22T15:43:23.507Z,7.63
2017-12-22T15:45:50.953Z,8.07
2017-12-22T15:48:19.166Z,7.73
2017-12-22T15:50:46.604Z,7.80
2017-12-22T15:53:14.131Z,6.10
2017-12-22T15:55:42.335Z,6.60
2017-12-22T15:58:09.774Z,7.33
2017-12-22T16:00:38.009Z,6.53
2017-12-22T16:03:05.779Z,9.90
2017-12-22T16:05:33.301Z,11.83
2017-12-22T16:08:00.722Z,14.80
2017-12-22T16:10:28.162Z,12.77
2017-12-22T16:12:56.401Z,13.37
2017-12-22T16:15:23.880Z,14.90
2017-12-22T16:17:51.323Z,13.30
2017-12-22T16:20:18.775Z,14.10
2017-12-22T16:22:46.222Z,14.07
2017-12-22T16:25:13.679Z,12.20
2017-12-22T16:27:41.126Z,12.90
2017-12-22T16:30:08.841Z,14.03
2017-12-22T16:32:37.052Z,13.37
2017-12-22T16:35:04.500Z,21.87
2017-12-22T16:37:31.956Z,20.27
2017-12-22T16:39:59.398Z,16.10
2017-12-22T16:42:26.900Z,16.67
2017-12-22T16:44:54.342Z,24.20
2017-12-22T16:47:21.787Z,18.07
2017-12-22T16:49:49.254Z,13.60
2017-12-22T16:52:17.138Z,19.30
2017-12-22T16:54:44.641Z,19.77
2017-12-22T16:57:12.838Z,17.50
2017-12-22T16:59:40.290Z,16.17
2017-12-22T17:02:07.781Z,14.30
2017-12-22T17:04:35.218Z,12.10
2017-12-22T17:07:02.664Z,10.37
2017-12-22T17:09:30.115Z,13.00
2017-12-22T17:11:57.687Z,11.10
2017-12-22T17:14:25.163Z,10.70
2017-12-22T17:16:52.611Z,9.97
2017-12-22T17:19:20.050Z,7.43
2017-12-22T17:21:47.506Z,8.30
2017-12-22T17:24:15.022Z,14.70
2017-12-22T17:26:43.273Z,11.30
2017-12-22T17:29:10.771Z,12.30
2017-12-22T17:31:39.010Z,8.50
2017-12-22T17:34:06.499Z,8.20
2017-12-22T17:36:34.710Z,7.80
2017-12-22T17:39:02.214Z,7.73
2017-12-22T17:41:30.480Z,6.67
2017-12-22T17:43:57.998Z,6.00
2017-12-22T17:46:25.469Z,7.07
2017-12-22T17:48:52.907Z,7.37
2017-12-22T17:51:20.350Z,7.40
2017-12-22T17:53:47.808Z,7.30
2017-12-22T17:56:15.314Z,6.90
2017-12-22T17:58:42.771Z,6.83
2017-12-22T18:01:10.225Z,6.30
2017-12-22T18:03:37.963Z,6.17
2017-12-22T18:06:05.444Z,6.70
2017-12-22T18:08:33.735Z,8.40
2017-12-22T18:11:01.359Z,10.17
2017-12-22T18:13:28.880Z,8.53
2017-12-22T18:15:56.431Z,9.10
2017-12-22T18:18:23.866Z,7.53
2017-12-22T18:20:52.078Z,7.57
2017-12-22T18:23:20.078Z,10.60
2017-12-22T18:25:47.551Z,10.30
2017-12-22T18:28:15.025Z,9.67
2017-12-22T18:30:42.520Z,8.40
2017-12-22T18:33:10.015Z,9.30
2017-12-22T18:35:37.504Z,8.13
2017-12-22T18:38:05.770Z,7.17
2017-12-22T18:40:33.979Z,6.90
2017-12-22T18:43:01.414Z,6.70
2017-12-22T18:45:28.855Z,8.03
2017-12-22T18:47:57.103Z,8.63
2017-12-22T18:50:24.555Z,7.90
2017-12-22T18:52:52.036Z,8.10
2017-12-22T18:55:19.471Z,9.63
2017-12-22T18:57:46.961Z,11.10
2017-12-22T19:00:15.226Z,9.20
2017-12-22T19:02:43.438Z,9.50
2017-12-22T19:05:10.937Z,10.70
2017-12-22T19:07:38.441Z,9.90
2017-12-22T19:10:05.878Z,9.40
2017-12-22T19:12:33.382Z,9.77
2017-12-22T19:15:00.824Z,9.80
2017-12-22T19:17:29.045Z,8.47
2017-12-22T19:19:56.783Z,10.57
2017-12-22T19:22:24.349Z,8.03
2017-12-22T19:24:51.842Z,7.83
2017-12-22T19:27:19.343Z,11.20
2017-12-22T19:29:46.829Z,9.60
2017-12-22T19:32:14.310Z,10.30
2017-12-22T19:34:42.562Z,10.50
2017-12-22T19:37:10.062Z,11.70
2017-12-22T19:39:37.549Z,11.53
2017-12-22T19:42:05.042Z,11.00
2017-12-22T19:44:32.481Z,12.27
2017-12-22T19:46:59.987Z,13.60
2017-12-22T19:49:27.478Z,23.97
2017-12-22T19:51:54.979Z,19.83
2017-12-22T19:54:23.233Z,17.10
2017-12-22T19:56:50.962Z,13.20
2017-12-22T19:59:18.468Z,14.00
2017-12-22T20:01:46.767Z,13.40
2017-12-22T20:04:14.358Z,12.37
2017-12-22T20:06:41.886Z,12.50
2017-12-22T20:09:10.214Z,11.80
2017-12-22T20:11:37.752Z,10.93
2017-12-22T20:14:05.253Z,10.83
2017-12-22T20:16:33.546Z,11.90
2017-12-22T20:19:01.822Z,11.20
2017-12-22T20:21:29.627Z,10.87
2017-12-22T20:23:57.232Z,10.27
2017-12-22T20:26:25.622Z,14.20
2017-12-22T20:28:53.186Z,13.40
2017-12-22T20:31:20.704Z,11.60
2017-12-22T20:33:48.227Z,18.70
2017-12-22T20:36:15.810Z,17.03
2017-12-22T20:38:43.386Z,18.33
2017-12-22T20:41:11.587Z,12.53
2017-12-22T20:43:39.125Z,10.70
2017-12-22T20:46:07.390Z,8.53
2017-12-22T20:48:35.894Z,9.60
2017-12-22T20:51:04.212Z,9.10
2017-12-22T20:53:31.742Z,9.77
2017-12-22T20:55:59.341Z,9.47
2017-12-22T20:58:26.938Z,10.60
2017-12-22T21:00:54.522Z,10.00
2017-12-22T21:03:22.449Z,10.70
2017-12-22T21:05:49.987Z,11.00
2017-12-22T21:08:17.542Z,10.90
2017-12-22T21:10:45.071Z,10.40
2017-12-22T21:13:12.986Z,10.50
2017-12-22T21:15:40.507Z,10.67
2017-12-22T21:18:08.043Z,10.63
2017-12-22T21:20:35.555Z,11.60
2017-12-22T21:23:03.877Z,11.47
2017-12-22T21:25:31.490Z,11.40
2017-12-22T21:27:59.016Z,11.43
2017-12-22T21:30:26.596Z,11.53
2017-12-22T21:32:54.143Z,11.50
2017-12-22T21:35:21.678Z,12.13
2017-12-22T21:37:49.199Z,12.70
2017-12-22T21:40:17.510Z,12.60
2017-12-22T21:42:45.024Z,13.20
2017-12-22T21:45:12.529Z,12.50
2017-12-22T21:47:40.023Z,14.13
2017-12-22T21:50:07.510Z,13.13
2017-12-22T21:52:35.767Z,13.40
2017-12-22T21:55:03.293Z,15.20
2017-12-22T21:57:30.778Z,14.73
2017-12-22T21:59:58.273Z,14.30
2017-12-22T22:02:26.529Z,12.27
2017-12-22T22:04:54.046Z,14.73
2017-12-22T22:07:21.550Z,14.40
2017-12-22T22:09:49.810Z,13.60
2017-12-22T22:12:17.284Z,13.67
2017-12-22T22:14:45.558Z,14.77
2017-12-22T22:17:13.837Z,14.20
2017-12-22T22:19:41.333Z,14.70
2017-12-22T22:22:08.877Z,15.10
2017-12-22T22:24:36.336Z,17.20
2017-12-22T22:27:03.830Z,18.10
2017-12-22T22:29:31.326Z,17.80
2017-12-22T22:31:59.577Z,21.70
2017-12-22T22:34:27.062Z,22.23
2017-12-22T22:36:55.318Z,24.23
2017-12-22T22:39:22.755Z,22.80
2017-12-22T22:41:50.252Z,23.30
2017-12-22T22:44:17.754Z,22.93
2017-12-22T22:46:45.234Z,21.03
2017-12-22T22:49:12.717Z,23.77
2017-12-22T22:51:40.918Z,22.53
2017-12-22T22:54:08.416Z,21.53
2017-12-22T22:56:35.906Z,20.13
2017-12-22T22:59:04.158Z,21.40
2017-12-22T23:01:32.497Z,19.47
2017-12-22T23:04:00.094Z,19.70
2017-12-22T23:06:27.615Z,17.17
2017-12-22T23:08:55.113Z,15.43
2017-12-22T23:11:23.986Z,14.43
2017-12-22T23:13:51.477Z,15.00
2017-12-22T23:16:19.743Z,14.90
2017-12-22T23:18:48.019Z,15.20
2017-12-22T23:21:16.226Z,15.33
2017-12-22T23:23:43.718Z,15.50
2017-12-22T23:26:11.198Z,17.47
2017-12-22T23:28:40.314Z,14.63
2017-12-22T23:31:07.755Z,14.70
2017-12-22T23:33:35.971Z,14.70
2017-12-22T23:36:03.474Z,16.00
2017-12-22T23:38:30.917Z,15.80
2017-12-22T23:40:58.366Z,15.50
2017-12-22T23:43:25.866Z,16.47
2017-12-22T23:45:53.365Z,16.70
2017-12-22T23:48:20.867Z,18.10
2017-12-22T23:50:49.130Z,16.83
2017-12-22T23:53:16.605Z,17.77
2017-12-22T23:55:44.874Z,16.70
2017-12-22T23:58:13.120Z,16.67
